createdAt,value
2022-12-22T00:01:13.836Z,96119.41
2022-12-22T00:03:59.047Z,96108.28
2022-12-22T00:06:44.519Z,96101.66
2022-12-22T00:09:29.519Z,96108.59
2022-12-22T00:12:14.499Z,96088.88
2022-12-22T00:14:59.927Z,96092.00
2022-12-22T00:17:46.279Z,96089.22
2022-12-22T00:20:33.063Z,96099.28
2022-12-22T00:23:17.975Z,96099.28
2022-12-22T00:26:03.476Z,96094.28
2022-12-22T00:28:48.509Z,96097.47
2022-12-22T00:31:33.813Z,96097.56
2022-12-22T00:34:18.867Z,96097.97
2022-12-22T00:37:04.111Z,96090.31
2022-12-22T00:39:49.043Z,96085.09
2022-12-22T00:42:34.249Z,96079.63
2022-12-22T00:45:19.389Z,96088.75
2022-12-22T00:48:05.102Z,96090.84
2022-12-22T00:50:51.735Z,96092.84
2022-12-22T00:53:36.838Z,96090.75
2022-12-22T00:56:25.304Z,96100.41
2022-12-22T00:59:11.712Z,96096.44
2022-12-22T01:01:56.897Z,96091.50
2022-12-22T01:04:41.769Z,96094.09
2022-12-22T01:07:29.758Z,96086.59
2022-12-22T01:10:15.329Z,96096.84
2022-12-22T01:13:00.227Z,96078.78
2022-12-22T01:15:45.854Z,96085.66
2022-12-22T01:18:30.694Z,96080.22
2022-12-22T01:21:16.047Z,96083.56
2022-12-22T01:24:01.573Z,96079.53
2022-12-22T01:26:46.925Z,96079.53
2022-12-22T01:29:32.465Z,96079.94
2022-12-22T01:32:17.825Z,96071.25
2022-12-22T01:35:03.363Z,96071.91
2022-12-22T01:37:48.281Z,96066.78
2022-12-22T01:40:37.679Z,96063.25
2022-12-22T01:43:36.966Z,96066.38
2022-12-22T01:47:00.732Z,96072.03
2022-12-22T01:49:51.632Z,96072.28
2022-12-22T01:52:37.845Z,96059.91
2022-12-22T01:55:26.396Z,96063.47
2022-12-22T01:58:11.597Z,96067.03
2022-12-22T02:00:56.761Z,96052.88
2022-12-22T02:03:42.091Z,96045.84
2022-12-22T02:06:26.883Z,96053.81
2022-12-22T02:09:21.370Z,96044.19
2022-12-22T02:12:26.641Z,96045.34
2022-12-22T02:15:25.707Z,96043.56
2022-12-22T02:18:29.825Z,96043.91
2022-12-22T02:21:19.555Z,96040.31
2022-12-22T02:24:07.427Z,96038.66
2022-12-22T02:26:54.855Z,96030.56
2022-12-22T02:29:51.954Z,96030.97
2022-12-22T02:32:39.069Z,96033.91
2022-12-22T02:35:31.082Z,96042.06
2022-12-22T02:38:16.095Z,96029.84
2022-12-22T02:41:33.762Z,96031.66
2022-12-22T02:44:18.704Z,96023.72
2022-12-22T02:47:09.877Z,96032.75
2022-12-22T02:49:58.981Z,96039.38
2022-12-22T02:52:48.388Z,96044.38
2022-12-22T02:55:34.216Z,96038.97
2022-12-22T02:58:19.882Z,96028.69
2022-12-22T03:01:05.141Z,96027.34
2022-12-22T03:03:50.314Z,96026.06
2022-12-22T03:06:35.195Z,96010.69
2022-12-22T03:09:20.404Z,96017.50
2022-12-22T03:12:05.475Z,96008.69
2022-12-22T03:14:50.411Z,96010.28
2022-12-22T03:17:35.533Z,96018.94
2022-12-22T03:20:20.418Z,96010.59
2022-12-22T03:23:05.522Z,96018.94
2022-12-22T03:25:50.617Z,96020.22
2022-12-22T03:28:17.135Z,96027.72
2022-12-22T03:30:43.669Z,96023.69
2022-12-22T03:33:10.215Z,96021.47
2022-12-22T03:35:36.742Z,96023.78
2022-12-22T03:38:03.763Z,96029.41
2022-12-22T03:40:31.173Z,96021.19
2022-12-22T03:43:16.311Z,96024.69
2022-12-22T03:46:01.587Z,96019.09
2022-12-22T03:48:28.179Z,96024.56
2022-12-22T03:50:54.700Z,96026.41
2022-12-22T03:53:21.342Z,96024.53
2022-12-22T03:55:47.869Z,96032.53
2022-12-22T03:58:14.382Z,96027.69
2022-12-22T04:00:40.964Z,96024.69
2022-12-22T04:03:07.664Z,96028.78
2022-12-22T04:05:34.397Z,96026.00
2022-12-22T04:08:00.903Z,96032.31
2022-12-22T04:10:46.143Z,96023.69
2022-12-22T04:13:12.653Z,96026.13
2022-12-22T04:15:39.141Z,96015.38
2022-12-22T04:18:05.722Z,96020.09
2022-12-22T04:20:32.352Z,96022.19
2022-12-22T04:22:59.430Z,96019.69
2022-12-22T04:25:26.577Z,96009.63
2022-12-22T04:27:53.058Z,96011.56
2022-12-22T04:30:19.635Z,96024.03
2022-12-22T04:32:46.286Z,96013.03
2022-12-22T04:35:12.796Z,96010.69
2022-12-22T04:37:39.350Z,96009.75
2022-12-22T04:40:06.250Z,96006.03
2022-12-22T04:42:32.868Z,96008.00
2022-12-22T04:44:59.418Z,96010.41
2022-12-22T04:47:25.937Z,95999.22
2022-12-22T04:49:52.519Z,95996.81
2022-12-22T04:52:19.029Z,95990.66
2022-12-22T04:54:45.599Z,95991.31
2022-12-22T04:57:12.106Z,95977.94
2022-12-22T04:59:38.626Z,95979.63
2022-12-22T05:02:05.219Z,95985.28
2022-12-22T05:04:32.485Z,95996.94
2022-12-22T05:06:59.035Z,95996.81
2022-12-22T05:09:25.569Z,96001.25
2022-12-22T05:11:52.098Z,95990.66
2022-12-22T05:14:18.640Z,95983.84
2022-12-22T05:16:45.304Z,95984.31
2022-12-22T05:19:11.847Z,95977.38
2022-12-22T05:21:38.425Z,95971.72
2022-12-22T05:24:05.140Z,95971.47
2022-12-22T05:26:31.701Z,95972.84
2022-12-22T05:28:58.285Z,95973.19
2022-12-22T05:31:25.650Z,95964.78
2022-12-22T05:33:52.631Z,95970.97
2022-12-22T05:36:19.471Z,95973.34
2022-12-22T05:38:46.059Z,95973.81
2022-12-22T05:41:12.650Z,95973.81
2022-12-22T05:43:39.190Z,95968.34
2022-12-22T05:46:06.744Z,95980.94
2022-12-22T05:48:37.984Z,95981.31
2022-12-22T05:51:06.693Z,95991.50
2022-12-22T05:53:33.224Z,96000.53
2022-12-22T05:55:59.825Z,95997.28
2022-12-22T05:58:26.427Z,96003.88
2022-12-22T06:00:56.251Z,95995.06
2022-12-22T06:03:22.869Z,95983.75
2022-12-22T06:05:50.486Z,95970.56
2022-12-22T06:08:17.012Z,95972.16
2022-12-22T06:10:43.559Z,95973.63
2022-12-22T06:13:10.107Z,95972.81
2022-12-22T06:15:36.711Z,95975.03
2022-12-22T06:18:03.285Z,95983.41
2022-12-22T06:20:29.836Z,95986.50
2022-12-22T06:22:56.527Z,95990.28
2022-12-22T06:25:23.049Z,96005.47
2022-12-22T06:27:49.578Z,96004.13
2022-12-22T06:30:16.374Z,96004.22
2022-12-22T06:32:42.960Z,96000.75
2022-12-22T06:35:09.921Z,96000.97
2022-12-22T06:37:36.492Z,95994.50
2022-12-22T06:40:03.785Z,95992.72
2022-12-22T06:42:48.939Z,95990.84
2022-12-22T06:45:15.502Z,95985.59
2022-12-22T06:47:42.042Z,95991.44
2022-12-22T06:50:08.815Z,95989.75
2022-12-22T06:52:35.472Z,96000.97
2022-12-22T06:55:02.409Z,95995.31
2022-12-22T06:57:29.278Z,95996.16
2022-12-22T06:59:57.974Z,95994.06
2022-12-22T07:02:24.920Z,96001.69
2022-12-22T07:04:51.619Z,95998.84
2022-12-22T07:07:18.193Z,95989.09
2022-12-22T07:09:44.781Z,95985.63
2022-12-22T07:12:11.292Z,95993.41
2022-12-22T07:14:37.800Z,95989.22
2022-12-22T07:17:04.359Z,95990.03
2022-12-22T07:19:30.903Z,95988.88
2022-12-22T07:21:57.458Z,95991.66
2022-12-22T07:24:26.089Z,95991.84
2022-12-22T07:26:52.865Z,95991.19
2022-12-22T07:29:19.369Z,95995.91
2022-12-22T07:31:45.937Z,95992.59
2022-12-22T07:34:12.646Z,95994.00
2022-12-22T07:36:39.206Z,95984.31
2022-12-22T07:39:05.948Z,95985.19
2022-12-22T07:41:50.840Z,95983.97
2022-12-22T07:44:17.381Z,95977.66
2022-12-22T07:46:43.952Z,95968.47
2022-12-22T07:49:29.767Z,95973.00
2022-12-22T07:51:57.105Z,95977.31
2022-12-22T07:54:24.144Z,95974.91
2022-12-22T07:56:50.817Z,95973.22
2022-12-22T07:59:17.705Z,95979.47
2022-12-22T08:01:45.723Z,95974.41
2022-12-22T08:04:12.836Z,95974.63
2022-12-22T08:06:39.432Z,95974.88
2022-12-22T08:09:06.800Z,95972.91
2022-12-22T08:11:33.530Z,95978.31
2022-12-22T08:14:01.924Z,95979.28
2022-12-22T08:16:29.415Z,95981.88
2022-12-22T08:18:56.329Z,95984.13
2022-12-22T08:21:22.922Z,95982.66
2022-12-22T08:23:49.565Z,95981.72
2022-12-22T08:26:18.318Z,95981.03
2022-12-22T08:28:50.524Z,95985.53
2022-12-22T08:31:17.414Z,95979.50
2022-12-22T08:33:43.972Z,95978.47
2022-12-22T08:36:11.235Z,95983.28
2022-12-22T08:38:39.599Z,95966.63
2022-12-22T08:41:07.787Z,95965.81
2022-12-22T08:43:34.338Z,95960.72
2022-12-22T08:46:00.909Z,95959.41
2022-12-22T08:48:27.478Z,95962.66
2022-12-22T08:50:54.042Z,95962.19
2022-12-22T08:53:54.086Z,95956.72
2022-12-22T08:56:07.182Z,95960.06
2022-12-22T08:58:33.716Z,95961.59
2022-12-22T09:01:00.358Z,95956.72
2022-12-22T09:03:26.910Z,95959.00
2022-12-22T09:06:00.093Z,95958.66
2022-12-22T09:08:26.600Z,95952.22
2022-12-22T09:10:53.146Z,95954.34
2022-12-22T09:13:19.646Z,95943.75
2022-12-22T09:15:46.217Z,95942.34
2022-12-22T09:18:12.696Z,95935.41
2022-12-22T09:20:39.203Z,95940.31
2022-12-22T09:23:05.799Z,95938.88
2022-12-22T09:25:34.375Z,95944.25
2022-12-22T09:28:00.935Z,95944.47
2022-12-22T09:30:27.442Z,95944.13
2022-12-22T09:32:56.741Z,95934.06
2022-12-22T09:35:23.231Z,95920.94
2022-12-22T09:37:49.771Z,95909.34
2022-12-22T09:40:16.318Z,95907.59
2022-12-22T09:42:43.007Z,95904.81
2022-12-22T09:45:17.014Z,95903.28
2022-12-22T09:47:45.500Z,95901.38
2022-12-22T09:50:16.138Z,95895.25
2022-12-22T09:52:46.569Z,95887.69
2022-12-22T09:55:15.654Z,95875.88
2022-12-22T09:57:42.181Z,95866.31
2022-12-22T10:00:14.452Z,95865.16
2022-12-22T10:03:04.072Z,95865.97
2022-12-22T10:05:38.400Z,95861.31
2022-12-22T10:08:17.002Z,95864.06
2022-12-22T10:10:43.618Z,95862.88
2022-12-22T10:13:19.648Z,95863.31
2022-12-22T10:15:46.250Z,95863.66
2022-12-22T10:18:14.077Z,95868.75
2022-12-22T10:20:41.645Z,95860.13
2022-12-22T10:23:16.817Z,95850.91
2022-12-22T10:29:06.890Z,95854.84
2022-12-22T10:31:35.311Z,95847.28
2022-12-22T10:34:13.130Z,95846.06
2022-12-22T10:36:40.573Z,95839.59
2022-12-22T10:39:08.646Z,95842.59
2022-12-22T10:41:40.876Z,95832.06
2022-12-22T10:44:13.779Z,95824.50
2022-12-22T10:46:41.489Z,95822.50
2022-12-22T10:49:13.131Z,95811.56
2022-12-22T10:51:40.687Z,95816.69
2022-12-22T10:54:07.165Z,95799.28
2022-12-22T10:56:34.854Z,95799.44
2022-12-22T10:59:01.342Z,95786.66
2022-12-22T11:01:37.805Z,95778.06
2022-12-22T11:04:16.334Z,95777.81
2022-12-22T11:06:43.674Z,95772.06
2022-12-22T11:09:32.407Z,95766.53
2022-12-22T11:12:04.967Z,95768.75
2022-12-22T11:14:50.244Z,95757.16
2022-12-22T11:17:26.746Z,95756.88
2022-12-22T11:20:13.525Z,95746.63
2022-12-22T11:23:03.315Z,95744.16
2022-12-22T11:25:35.996Z,95730.84
2022-12-22T11:28:20.921Z,95729.75
2022-12-22T11:30:59.383Z,95726.81
2022-12-22T11:33:28.742Z,95727.94
2022-12-22T11:36:01.279Z,95721.47
2022-12-22T11:38:36.681Z,95715.28
2022-12-22T11:41:35.372Z,95716.09
2022-12-22T11:44:18.617Z,95717.97
2022-12-22T11:47:04.181Z,95716.06
2022-12-22T11:49:33.593Z,95714.41
2022-12-22T11:52:00.185Z,95719.03
2022-12-22T11:54:35.897Z,95713.34
2022-12-22T11:57:02.551Z,95715.00
2022-12-22T11:59:47.624Z,95712.50
2022-12-22T12:02:32.803Z,95696.09
2022-12-22T12:05:02.078Z,95683.19
2022-12-22T12:07:45.718Z,95683.34
2022-12-22T12:10:15.145Z,95686.34
2022-12-22T12:13:25.579Z,95676.03
2022-12-22T12:15:55.932Z,95666.34
2022-12-22T12:18:26.896Z,95669.44
2022-12-22T12:21:13.637Z,95675.84
2022-12-22T12:23:59.621Z,95670.00
2022-12-22T12:26:32.195Z,95668.63
2022-12-22T12:29:20.353Z,95675.97
2022-12-22T12:31:55.733Z,95690.00
2022-12-22T12:34:22.961Z,95679.59
2022-12-22T12:37:02.063Z,95675.06
2022-12-22T12:39:28.621Z,95673.97
2022-12-22T12:42:07.359Z,95671.69
2022-12-22T12:44:37.527Z,95672.25
2022-12-22T12:47:25.604Z,95673.47
2022-12-22T12:49:59.802Z,95665.50
2022-12-22T12:52:43.576Z,95673.03
2022-12-22T12:55:31.553Z,95677.09
2022-12-22T12:57:59.738Z,95673.66
2022-12-22T13:00:32.295Z,95668.69
2022-12-22T13:03:08.168Z,95673.25
2022-12-22T13:05:36.640Z,95667.56
2022-12-22T13:08:12.508Z,95671.47
2022-12-22T13:11:02.307Z,95679.25
2022-12-22T13:13:28.791Z,95683.31
2022-12-22T13:15:58.188Z,95693.31
2022-12-22T13:18:24.760Z,95688.34
2022-12-22T13:21:18.743Z,95692.25
2022-12-22T13:24:23.646Z,95697.81
2022-12-22T13:26:43.339Z,95713.66
2022-12-22T13:29:21.927Z,95716.44
2022-12-22T13:31:50.524Z,95719.78
2022-12-22T13:34:51.353Z,95715.47
2022-12-22T13:37:25.457Z,95721.56
2022-12-22T13:40:07.291Z,95724.59
2022-12-22T13:42:45.572Z,95728.97
2022-12-22T13:45:17.921Z,95729.84
2022-12-22T13:47:45.259Z,95733.88
2022-12-22T13:50:22.942Z,95735.53
2022-12-22T13:52:50.661Z,95741.34
2022-12-22T13:55:19.236Z,95741.34
2022-12-22T13:57:45.791Z,95733.19
2022-12-22T14:00:19.570Z,95745.72
2022-12-22T14:02:46.217Z,95746.69
2022-12-22T14:05:14.273Z,95742.47
2022-12-22T14:07:41.242Z,95753.31
2022-12-22T14:10:08.188Z,95761.81
2022-12-22T14:12:40.401Z,95756.00
2022-12-22T14:15:12.276Z,95748.59
2022-12-22T14:17:44.605Z,95743.75
2022-12-22T14:20:23.376Z,95750.72
2022-12-22T14:22:53.297Z,95750.19
2022-12-22T14:25:21.838Z,95762.41
2022-12-22T14:27:53.219Z,95758.25
2022-12-22T14:30:21.072Z,95767.28
2022-12-22T14:32:54.349Z,95766.03
2022-12-22T14:35:24.338Z,95754.09
2022-12-22T14:37:52.162Z,95749.94
2022-12-22T14:40:29.886Z,95753.56
2022-12-22T14:42:57.213Z,95746.50
2022-12-22T14:45:24.231Z,95751.06
2022-12-22T14:47:51.504Z,95749.13
2022-12-22T14:50:20.273Z,95746.09
2022-12-22T14:52:51.452Z,95750.66
2022-12-22T14:55:35.635Z,95752.75
2022-12-22T14:58:11.369Z,95771.91
2022-12-22T15:00:42.029Z,95789.94
2022-12-22T15:03:24.067Z,95797.16
2022-12-22T15:05:51.006Z,95809.19
2022-12-22T15:08:38.823Z,95811.25
2022-12-22T15:11:25.776Z,95807.22
2022-12-22T15:13:52.442Z,95817.47
2022-12-22T15:16:20.095Z,95816.22
2022-12-22T15:18:47.475Z,95823.44
2022-12-22T15:21:15.278Z,95817.88
2022-12-22T15:23:42.034Z,95826.94
2022-12-22T15:26:08.815Z,95818.88
2022-12-22T15:28:35.365Z,95818.06
2022-12-22T15:31:03.090Z,95822.59
2022-12-22T15:33:30.369Z,95828.88
2022-12-22T15:35:57.452Z,95832.16
2022-12-22T15:38:25.343Z,95833.88
2022-12-22T15:40:52.449Z,95836.91
2022-12-22T15:46:06.491Z,95857.03
2022-12-22T15:48:34.172Z,95869.59
2022-12-22T15:51:02.543Z,95877.16
2022-12-22T15:53:29.758Z,95885.50
2022-12-22T15:55:58.603Z,95896.19
2022-12-22T15:58:27.341Z,95921.19
2022-12-22T16:00:53.918Z,95918.69
2022-12-22T16:03:20.707Z,95919.75
2022-12-22T16:05:47.421Z,95923.47
2022-12-22T16:08:19.913Z,95928.72
2022-12-22T16:10:47.064Z,95927.31
2022-12-22T16:13:15.540Z,95929.81
2022-12-22T16:15:42.360Z,95934.59
2022-12-22T16:18:11.877Z,95925.03
2022-12-22T16:20:40.039Z,95933.16
2022-12-22T16:23:11.167Z,95935.81
2022-12-22T16:25:38.936Z,95937.97
2022-12-22T16:28:06.330Z,95937.88
2022-12-22T16:30:33.826Z,95950.75
2022-12-22T16:33:00.980Z,95945.44
2022-12-22T16:35:28.925Z,95954.28
2022-12-22T16:37:56.665Z,95941.25
2022-12-22T16:40:23.753Z,95932.78
2022-12-22T16:45:36.837Z,95901.09
2022-12-22T16:48:10.030Z,95852.78
2022-12-22T16:50:36.572Z,95803.00
2022-12-22T16:53:04.348Z,95856.88
2022-12-22T16:55:31.141Z,95897.66
2022-12-22T16:57:57.727Z,95895.03
2022-12-22T17:00:25.846Z,95885.72
2022-12-22T17:02:54.788Z,95895.78
2022-12-22T17:05:29.493Z,95894.44
2022-12-22T17:07:57.663Z,95887.88
2022-12-22T17:10:24.443Z,95889.59
2022-12-22T17:12:52.379Z,95882.34
2022-12-22T17:15:21.522Z,95884.25
2022-12-22T17:17:48.817Z,95883.41
2022-12-22T17:20:16.200Z,95880.81
2022-12-22T17:22:46.310Z,95882.75
2022-12-22T17:25:24.508Z,95867.47
2022-12-22T17:27:51.071Z,95875.72
2022-12-22T17:30:22.124Z,95878.91
2022-12-22T17:32:49.427Z,95881.78
2022-12-22T17:35:16.637Z,95885.28
2022-12-22T17:37:44.534Z,95888.47
2022-12-22T17:40:15.614Z,95887.91
2022-12-22T17:42:42.305Z,95882.03
2022-12-22T17:45:15.719Z,95881.91
2022-12-22T17:47:43.103Z,95885.97
2022-12-22T17:50:14.956Z,95888.59
2022-12-22T17:52:42.162Z,95896.25
2022-12-22T17:55:49.743Z,95896.25
2022-12-22T17:58:06.872Z,95912.13
2022-12-22T18:00:33.364Z,95917.28
2022-12-22T18:03:00.131Z,95910.81
2022-12-22T18:05:28.775Z,95918.81
2022-12-22T18:08:00.034Z,95921.47
2022-12-22T18:10:28.604Z,95923.22
2022-12-22T18:12:56.582Z,95933.03
2022-12-22T18:15:23.920Z,95936.47
2022-12-22T18:17:50.426Z,95944.59
2022-12-22T18:20:20.112Z,95936.47
2022-12-22T18:22:47.052Z,95934.78
2022-12-22T18:25:18.508Z,95931.97
2022-12-22T18:27:45.010Z,95935.88
2022-12-22T18:30:15.344Z,95943.16
2022-12-22T18:32:41.843Z,95939.47
2022-12-22T18:35:08.548Z,95947.91
2022-12-22T18:37:35.257Z,95951.97
2022-12-22T18:40:02.006Z,95954.47
2022-12-22T18:42:28.538Z,95958.19
2022-12-22T18:44:55.119Z,95946.59
2022-12-22T18:47:21.756Z,95948.00
2022-12-22T18:49:48.378Z,95948.13
2022-12-22T18:52:18.625Z,95952.31
2022-12-22T18:54:45.376Z,95953.03
2022-12-22T18:57:13.411Z,95952.66
2022-12-22T18:59:39.943Z,95958.59
2022-12-22T19:02:18.394Z,95956.66
2022-12-22T19:04:44.940Z,95955.47
2022-12-22T19:07:15.514Z,95947.88
2022-12-22T19:09:42.806Z,95948.78
2022-12-22T19:12:13.484Z,95958.16
2022-12-22T19:14:41.032Z,95956.16
2022-12-22T19:17:17.334Z,95956.97
2022-12-22T19:19:43.876Z,95960.47
2022-12-22T19:22:14.271Z,95950.56
2022-12-22T19:24:47.588Z,95957.75
2022-12-22T19:27:19.787Z,95950.38
2022-12-22T19:29:46.612Z,95948.59
2022-12-22T19:32:30.158Z,95941.31
2022-12-22T19:34:56.935Z,95938.00
2022-12-22T19:37:23.441Z,95939.63
2022-12-22T19:39:50.040Z,95946.44
2022-12-22T19:42:19.885Z,95952.88
2022-12-22T19:44:46.887Z,95948.47
2022-12-22T19:47:21.021Z,95939.31
2022-12-22T19:49:48.608Z,95938.25
2022-12-22T19:52:15.226Z,95942.88
2022-12-22T19:54:41.739Z,95931.56
2022-12-22T19:57:14.549Z,95933.72
2022-12-22T19:59:42.882Z,95932.66
2022-12-22T20:02:21.907Z,95944.44
2022-12-22T20:04:49.361Z,95944.31
2022-12-22T20:07:17.219Z,95941.69
2022-12-22T20:09:43.787Z,95931.94
2022-12-22T20:12:30.637Z,95924.28
2022-12-22T20:14:57.679Z,95933.81
2022-12-22T20:17:24.269Z,95936.38
2022-12-22T20:19:50.809Z,95930.38
2022-12-22T20:22:18.395Z,95941.72
2022-12-22T20:24:45.399Z,95941.38
2022-12-22T20:27:21.430Z,95931.38
2022-12-22T20:29:48.262Z,95943.78
2022-12-22T20:32:15.230Z,95931.75
2022-12-22T20:34:42.162Z,95938.53
2022-12-22T20:37:15.466Z,95921.00
2022-12-22T20:39:42.541Z,95927.13
2022-12-22T20:42:19.041Z,95928.69
2022-12-22T20:45:02.122Z,95927.34
2022-12-22T20:47:31.075Z,95926.63
2022-12-22T20:49:57.592Z,95929.00
2022-12-22T20:52:24.101Z,95929.88
2022-12-22T20:54:50.700Z,95924.75
2022-12-22T20:57:17.367Z,95931.44
2022-12-22T20:59:44.528Z,95934.56
2022-12-22T21:02:20.331Z,95936.69
2022-12-22T21:04:47.198Z,95937.09
2022-12-22T21:07:13.686Z,95939.09
2022-12-22T21:09:41.629Z,95939.09
2022-12-22T21:12:08.188Z,95939.81
2022-12-22T21:14:34.752Z,95941.38
2022-12-22T21:17:01.475Z,95941.81
2022-12-22T21:19:28.169Z,95946.47
2022-12-22T21:21:54.942Z,95939.31
2022-12-22T21:24:21.567Z,95937.41
2022-12-22T21:26:53.236Z,95933.56
2022-12-22T21:29:21.705Z,95933.81
2022-12-22T21:31:48.299Z,95931.94
2022-12-22T21:34:14.940Z,95929.31
2022-12-22T21:36:43.684Z,95929.69
2022-12-22T21:39:20.172Z,95917.75
2022-12-22T21:42:01.915Z,95932.88
2022-12-22T21:44:29.646Z,95926.81
2022-12-22T21:46:56.513Z,95930.13
2022-12-22T21:49:24.566Z,95927.28
2022-12-22T21:51:51.918Z,95932.19
2022-12-22T21:54:19.857Z,95928.38
2022-12-22T21:56:46.888Z,95933.50
2022-12-22T21:59:13.728Z,95914.63
2022-12-22T22:01:41.385Z,95920.97
2022-12-22T22:04:08.441Z,95922.88
2022-12-22T22:06:35.128Z,95920.72
2022-12-22T22:09:04.208Z,95908.56
2022-12-22T22:11:30.839Z,95919.19
2022-12-22T22:13:57.480Z,95910.69
2022-12-22T22:16:23.991Z,95907.25
2022-12-22T22:18:50.625Z,95899.50
2022-12-22T22:21:17.607Z,95905.13
2022-12-22T22:23:44.195Z,95896.16
2022-12-22T22:26:11.290Z,95894.72
2022-12-22T22:28:38.229Z,95893.06
2022-12-22T22:31:11.653Z,95894.97
2022-12-22T22:33:38.311Z,95892.81
2022-12-22T22:36:06.247Z,95897.00
2022-12-22T22:38:32.789Z,95886.13
2022-12-22T22:40:59.490Z,95883.88
2022-12-22T22:43:26.003Z,95890.19
2022-12-22T22:45:52.744Z,95891.03
2022-12-22T22:48:20.671Z,95878.75
2022-12-22T22:50:47.181Z,95868.59
2022-12-22T22:53:13.738Z,95859.19
2022-12-22T22:55:40.316Z,95861.09
2022-12-22T22:58:07.463Z,95849.88
2022-12-22T23:00:34.125Z,95855.84
2022-12-22T23:03:00.795Z,95850.97
2022-12-22T23:05:27.477Z,95845.25
2022-12-22T23:07:54.022Z,95837.97
2022-12-22T23:10:20.541Z,95839.03
2022-12-22T23:12:47.120Z,95831.28
2022-12-22T23:15:13.632Z,95829.84
2022-12-22T23:17:40.123Z,95827.84
2022-12-22T23:20:07.217Z,95834.28
2022-12-22T23:22:33.928Z,95818.88
2022-12-22T23:25:00.395Z,95814.69
2022-12-22T23:27:26.970Z,95804.56
2022-12-22T23:29:53.447Z,95807.44
2022-12-22T23:32:19.972Z,95807.44
2022-12-22T23:34:47.857Z,95811.47
2022-12-22T23:37:19.289Z,95813.97
2022-12-22T23:39:46.810Z,95810.97
2022-12-22T23:42:13.588Z,95814.78
2022-12-22T23:44:40.095Z,95810.38
2022-12-22T23:47:06.924Z,95802.25
2022-12-22T23:49:33.566Z,95789.03
2022-12-22T23:52:00.045Z,95786.31
2022-12-22T23:54:26.614Z,95784.50
2022-12-22T23:56:53.191Z,95774.84
2022-12-22T23:59:19.810Z,95774.16
